Time;durP1;ratioP1;P1;durP2;ratioP2;P2;SDS_P1;SDS_P2;PMS_P1;PMS_P2;Temp;Humidity;BMP_temperature;BMP_pressure;BME280_temperature;BME280_humidity;BME280_pressure;Samples;Min_cycle;Max_cycle;Signal;HPM_P1;HPM_P2
2022/04/09 00:01:54;;;;;;;2.77;2.50;;;6.10;87.40;;;;;;957591;145;27307;-74
2022/04/09 00:04:20;;;;;;;2.67;2.10;;;6.10;87.50;;;;;;972772;145;27387;-74
2022/04/09 00:06:47;;;;;;;2.20;2.00;;;6.10;87.50;;;;;;963728;145;27303;-74
2022/04/09 00:09:13;;;;;;;2.53;2.33;;;6.10;87.70;;;;;;974887;145;27316;-74
2022/04/09 00:11:41;;;;;;;2.17;2.07;;;6.20;87.90;;;;;;970898;145;27295;-74
2022/04/09 00:14:07;;;;;;;2.17;1.97;;;6.20;87.90;;;;;;956118;145;27903;-74
2022/04/09 00:16:34;;;;;;;2.50;2.30;;;6.20;87.90;;;;;;976552;145;27411;-74
2022/04/09 00:19:00;;;;;;;3.23;2.63;;;6.20;88.10;;;;;;925975;154;27349;-74
2022/04/09 00:21:28;;;;;;;2.80;2.47;;;6.30;88.20;;;;;;968453;148;27357;-74
2022/04/09 00:23:53;;;;;;;2.97;2.67;;;6.20;87.90;;;;;;942969;149;27384;-74
2022/04/09 00:26:20;;;;;;;3.33;3.03;;;6.20;88.00;;;;;;931970;149;27362;-74
2022/04/09 00:28:46;;;;;;;3.20;2.90;;;6.20;87.90;;;;;;932310;152;27380;-74
2022/04/09 00:31:13;;;;;;;3.23;3.03;;;6.20;87.90;;;;;;943470;152;27917;-74
2022/04/09 00:33:39;;;;;;;3.40;3.10;;;6.20;87.80;;;;;;964696;145;27391;-74
2022/04/09 00:36:06;;;;;;;3.83;3.17;;;6.20;87.90;;;;;;971088;145;27237;-74
2022/04/09 00:38:32;;;;;;;3.33;3.03;;;6.20;88.10;;;;;;960441;145;27276;-74
2022/04/09 00:40:59;;;;;;;3.87;2.87;;;6.20;88.10;;;;;;960785;145;27351;-74
2022/04/09 00:43:26;;;;;;;4.10;3.70;;;6.20;88.30;;;;;;964108;145;27792;-74
2022/04/09 00:45:52;;;;;;;4.10;3.70;;;6.20;88.40;;;;;;968549;145;27240;-74
2022/04/09 00:48:21;;;;;;;4.07;3.67;;;6.20;88.50;;;;;;975565;145;27285;-74
2022/04/09 00:50:48;;;;;;;4.70;3.57;;;6.20;88.50;;;;;;965944;145;27387;-74
2022/04/09 00:53:14;;;;;;;3.90;3.60;;;6.20;88.70;;;;;;965866;145;27311;-74
2022/04/09 00:58:26;;;;;;;3.93;3.63;;;6.20;88.70;;;;;;970784;145;27399;-73
2022/04/09 01:00:53;;;;;;;4.47;4.17;;;6.20;88.70;;;;;;960105;145;27302;-74
2022/04/09 01:03:20;;;;;;;4.80;4.40;;;6.20;89.00;;;;;;965570;145;27290;-73
2022/04/09 01:05:46;;;;;;;5.53;4.90;;;6.20;89.00;;;;;;966091;148;27856;-73
2022/04/09 01:08:13;;;;;;;4.90;4.50;;;6.20;89.00;;;;;;936316;152;27355;-74
2022/04/09 01:10:39;;;;;;;5.07;4.33;;;6.20;89.00;;;;;;973628;145;27282;-74
2022/04/09 01:13:06;;;;;;;5.37;4.87;;;6.30;89.90;;;;;;944040;148;27384;-74
2022/04/09 01:15:32;;;;;;;5.13;4.63;;;6.30;89.20;;;;;;929201;154;27798;-74
2022/04/09 01:18:02;;;;;;;5.40;4.90;;;6.30;89.00;;;;;;929504;152;27337;-74
2022/04/09 01:20:29;;;;;;;5.07;4.67;;;6.30;88.40;;;;;;933114;150;27312;-74
2022/04/09 01:22:55;;;;;;;5.63;5.07;;;6.20;89.10;;;;;;932038;149;27321;-74
2022/04/09 01:25:22;;;;;;;5.53;5.03;;;6.20;89.20;;;;;;930039;153;27883;-74
2022/04/09 01:27:48;;;;;;;5.70;5.10;;;6.20;89.10;;;;;;936675;151;27282;-74
2022/04/09 01:30:15;;;;;;;5.97;5.20;;;6.20;90.00;;;;;;933418;150;27359;-74
2022/04/09 01:32:41;;;;;;;6.07;5.47;;;6.20;89.40;;;;;;932043;151;27480;-74
2022/04/09 01:35:08;;;;;;;5.23;4.83;;;6.20;89.30;;;;;;933358;151;27323;-74
2022/04/09 01:37:35;;;;;;;5.73;5.20;;;6.30;89.50;;;;;;930877;151;27854;-74
2022/04/09 01:40:01;;;;;;;5.70;5.20;;;6.20;88.80;;;;;;931259;151;27464;-74
2022/04/09 01:42:28;;;;;;;8.07;6.03;;;6.20;89.50;;;;;;945886;151;27346;-74
2022/04/09 01:44:54;;;;;;;6.13;5.50;;;6.20;89.30;;;;;;940881;151;27342;-74
2022/04/09 01:47:21;;;;;;;6.33;5.77;;;6.20;89.20;;;;;;934543;153;27347;-74
2022/04/09 01:49:47;;;;;;;7.07;6.47;;;6.20;89.10;;;;;;935826;151;27354;-74
2022/04/09 01:52:14;;;;;;;7.10;6.40;;;6.20;88.90;;;;;;935202;153;27427;-74
2022/04/09 01:54:41;;;;;;;6.00;5.40;;;6.10;88.90;;;;;;942256;151;27432;-74
2022/04/09 01:57:07;;;;;;;6.87;6.07;;;6.10;88.90;;;;;;935680;151;27287;-74
2022/04/09 01:59:34;;;;;;;6.73;6.07;;;6.10;88.80;;;;;;924445;153;27510;-74
2022/04/09 02:02:00;;;;;;;7.43;6.30;;;6.00;88.80;;;;;;927678;151;27357;-74
2022/04/09 02:04:27;;;;;;;7.27;6.57;;;5.90;88.80;;;;;;930229;153;27455;-74
2022/04/09 02:06:54;;;;;;;7.10;6.43;;;5.80;88.80;;;;;;930688;151;27331;-73
2022/04/09 02:09:20;;;;;;;6.87;5.90;;;5.80;88.70;;;;;;934544;151;27386;-74
2022/04/09 02:11:47;;;;;;;6.73;6.00;;;5.70;88.80;;;;;;926441;151;27467;-73
2022/04/09 02:14:13;;;;;;;6.90;5.90;;;5.60;89.10;;;;;;928260;151;27373;-73
2022/04/09 02:16:41;;;;;;;7.30;5.43;;;5.60;89.50;;;;;;937269;150;27358;-73
2022/04/09 02:19:08;;;;;;;6.70;6.03;;;5.60;90.00;;;;;;932666;151;27428;-73
2022/04/09 02:21:34;;;;;;;7.13;6.30;;;5.50;90.20;;;;;;936885;151;27319;-73
2022/04/09 02:24:00;;;;;;;7.77;6.33;;;5.50;90.40;;;;;;936186;151;27404;-74
2022/04/09 02:26:26;;;;;;;7.27;6.53;;;5.50;90.70;;;;;;936460;151;27385;-74
2022/04/09 02:28:53;;;;;;;6.87;6.13;;;5.50;90.50;;;;;;933256;153;27393;-74
2022/04/09 02:31:20;;;;;;;6.90;6.23;;;5.50;90.40;;;;;;923299;150;27449;-74
2022/04/09 02:33:46;;;;;;;6.60;5.90;;;5.50;90.30;;;;;;938922;151;27314;-74
2022/04/09 02:36:13;;;;;;;6.83;6.00;;;5.50;90.20;;;;;;930086;151;27352;-74
2022/04/09 02:38:39;;;;;;;6.77;6.07;;;5.40;90.20;;;;;;949214;151;27377;-73
2022/04/09 02:41:06;;;;;;;6.97;6.30;;;5.40;90.10;;;;;;946782;150;27314;-73
2022/04/09 02:43:32;;;;;;;8.07;6.53;;;5.40;90.40;;;;;;934482;151;27381;-73
2022/04/09 02:45:59;;;;;;;6.37;5.77;;;5.40;90.50;;;;;;930601;151;27874;-73
2022/04/09 02:48:25;;;;;;;6.57;5.87;;;5.40;90.80;;;;;;934340;151;27413;-73
2022/04/09 02:50:52;;;;;;;6.70;5.97;;;5.40;91.00;;;;;;944219;151;27365;-74
2022/04/09 02:53:19;;;;;;;7.53;5.53;;;5.40;91.10;;;;;;934619;151;27311;-73
2022/04/09 02:55:45;;;;;;;7.47;5.83;;;5.40;91.30;;;;;;932817;151;27400;-73
2022/04/09 02:58:12;;;;;;;6.53;5.63;;;5.50;91.40;;;;;;940797;149;27413;-73
2022/04/09 03:00:39;;;;;;;6.80;5.57;;;5.60;91.50;;;;;;961804;145;27313;-73
2022/04/09 03:03:05;;;;;;;6.40;5.80;;;5.60;91.50;;;;;;928182;154;27347;-73
2022/04/09 03:05:32;;;;;;;6.17;5.03;;;5.70;91.60;;;;;;969253;146;27376;-74
2022/04/09 03:07:58;;;;;;;6.47;5.57;;;5.70;91.60;;;;;;965635;145;27293;-73
2022/04/09 03:10:25;;;;;;;5.83;5.07;;;5.80;91.60;;;;;;939425;151;27313;-74
2022/04/09 03:12:51;;;;;;;6.00;5.40;;;5.80;91.50;;;;;;952341;148;27331;-74
2022/04/09 03:15:18;;;;;;;9.00;6.17;;;5.90;91.50;;;;;;951422;146;27316;-73
2022/04/09 03:17:44;;;;;;;6.37;5.77;;;5.90;91.40;;;;;;951529;148;27904;-74
2022/04/09 03:20:11;;;;;;;6.70;6.00;;;6.00;91.30;;;;;;953934;146;27240;-74
2022/04/09 03:22:38;;;;;;;7.73;6.30;;;6.00;91.20;;;;;;951755;148;27843;-73
2022/04/09 03:25:04;;;;;;;7.87;6.90;;;6.00;91.10;;;;;;951784;148;27304;-73
2022/04/09 03:27:31;;;;;;;7.63;6.20;;;6.10;91.00;;;;;;957688;146;27283;-74
2022/04/09 03:29:57;;;;;;;8.13;6.47;;;6.00;90.80;;;;;;951154;150;27244;-74
2022/04/09 03:32:24;;;;;;;8.00;6.43;;;6.00;90.70;;;;;;956811;146;27308;-74
2022/04/09 03:34:52;;;;;;;7.60;6.63;;;6.00;90.70;;;;;;917838;154;27379;-74
2022/04/09 03:37:17;;;;;;;6.20;5.60;;;6.00;90.80;;;;;;928673;152;27392;-74
2022/04/09 03:39:44;;;;;;;6.93;6.23;;;6.00;90.70;;;;;;936198;152;27402;-74
2022/04/09 03:42:10;;;;;;;6.63;5.90;;;6.00;90.70;;;;;;922931;152;27374;-74
2022/04/09 03:44:37;;;;;;;7.03;6.40;;;6.00;90.70;;;;;;918121;152;27331;-73
2022/04/09 03:47:05;;;;;;;8.03;5.80;;;5.90;90.50;;;;;;920656;151;27348;-74
2022/04/09 03:49:30;;;;;;;7.00;6.30;;;5.90;90.30;;;;;;921328;153;27844;-74
2022/04/09 03:51:57;;;;;;;8.27;6.63;;;5.80;90.10;;;;;;923499;150;27419;-73
2022/04/09 03:54:23;;;;;;;7.27;6.27;;;5.80;90.10;;;;;;916525;153;27355;-74
2022/04/09 03:56:50;;;;;;;6.57;5.97;;;5.70;90.10;;;;;;907572;153;27364;-73
2022/04/09 03:59:16;;;;;;;6.93;6.33;;;5.70;90.30;;;;;;920825;154;27293;-73
2022/04/09 04:01:47;;;;;;;6.80;6.10;;;5.60;90.40;;;;;;947436;150;27328;-74
2022/04/09 04:04:10;;;;;;;8.57;6.50;;;5.60;90.40;;;;;;941809;151;27315;-74
2022/04/09 04:06:36;;;;;;;7.20;6.07;;;5.50;90.50;;;;;;926238;154;27313;-74
2022/04/09 04:09:03;;;;;;;9.07;5.77;;;5.50;90.70;;;;;;946771;146;27290;-73
2022/04/09 04:11:29;;;;;;;6.33;5.73;;;5.50;90.90;;;;;;950182;148;27381;-74
2022/04/09 04:13:56;;;;;;;7.27;5.70;;;5.40;90.90;;;;;;958886;148;27375;-73
2022/04/09 04:16:22;;;;;;;7.07;6.17;;;5.40;90.90;;;;;;953168;146;27271;-73
2022/04/09 04:18:49;;;;;;;5.80;5.20;;;5.40;90.80;;;;;;956790;146;27233;-73
2022/04/09 04:21:16;;;;;;;6.07;5.47;;;5.40;90.70;;;;;;941947;148;27302;-73
2022/04/09 04:23:42;;;;;;;6.03;5.07;;;5.40;90.50;;;;;;949236;151;27272;-74
2022/04/09 04:26:09;;;;;;;8.23;6.03;;;5.30;90.50;;;;;;944590;146;27299;-73
2022/04/09 04:28:35;;;;;;;7.20;6.00;;;5.20;90.40;;;;;;945214;151;27374;-74
2022/04/09 04:31:02;;;;;;;6.23;5.63;;;5.20;90.40;;;;;;951814;150;28085;-74
2022/04/09 04:33:29;;;;;;;12.07;6.07;;;5.10;90.50;;;;;;951119;146;27418;-73
2022/04/09 04:35:55;;;;;;;8.03;5.17;;;5.10;90.80;;;;;;951122;151;27374;-73
2022/04/09 04:38:23;;;;;;;6.97;5.83;;;5.10;90.90;;;;;;961811;146;27314;-74
2022/04/09 04:40:48;;;;;;;6.97;5.73;;;5.10;91.30;;;;;;960739;148;27279;-74
2022/04/09 04:43:15;;;;;;;6.87;5.90;;;5.10;91.60;;;;;;919678;151;27359;-74
2022/04/09 04:45:42;;;;;;;6.67;5.70;;;5.10;91.80;;;;;;912921;153;27360;-74
2022/04/09 04:48:08;;;;;;;5.83;5.27;;;5.20;92.10;;;;;;951973;148;27277;-74
2022/04/09 04:50:35;;;;;;;6.50;5.33;;;5.20;92.10;;;;;;938399;151;27307;-73
2022/04/09 04:53:01;;;;;;;8.87;5.40;;;5.30;92.30;;;;;;926846;154;27421;-74
2022/04/09 04:55:28;;;;;;;6.83;5.70;;;5.40;92.30;;;;;;912379;154;27344;-74
2022/04/09 04:57:55;;;;;;;8.43;5.43;;;5.40;92.10;;;;;;910739;157;27399;-73
2022/04/09 05:00:21;;;;;;;6.57;5.97;;;5.50;91.90;;;;;;931970;152;27993;-74
2022/04/09 05:02:48;;;;;;;5.37;4.87;;;5.50;91.80;;;;;;935434;152;27446;-74
2022/04/09 05:05:14;;;;;;;6.00;5.33;;;5.50;91.60;;;;;;924905;154;27313;-73
2022/04/09 05:07:41;;;;;;;5.93;5.30;;;5.50;91.60;;;;;;918784;155;27827;-74
2022/04/09 05:10:07;;;;;;;5.87;5.27;;;5.60;91.80;;;;;;925700;154;27449;-73
2022/04/09 05:12:34;;;;;;;7.77;5.30;;;5.60;92.30;;;;;;925949;152;27453;-73
2022/04/09 05:15:01;;;;;;;8.90;5.50;;;5.70;92.50;;;;;;947264;150;27345;-73
2022/04/09 05:17:27;;;;;;;7.80;5.13;;;5.80;92.40;;;;;;928138;151;27278;-74
2022/04/09 05:19:54;;;;;;;5.63;4.60;;;5.80;92.30;;;;;;929124;152;27336;-73
2022/04/09 05:22:20;;;;;;;5.23;4.53;;;5.90;92.20;;;;;;929275;152;27282;-73
2022/04/09 05:24:47;;;;;;;5.83;4.67;;;6.00;92.20;;;;;;941294;150;27920;-73
2022/04/09 05:27:14;;;;;;;6.07;4.80;;;6.10;92.70;;;;;;943425;150;27424;-73
2022/04/09 05:29:40;;;;;;;5.30;4.27;;;6.20;93.40;;;;;;913580;154;27343;-73
2022/04/09 05:32:07;;;;;;;7.90;4.83;;;6.40;93.60;;;;;;932683;150;27425;-73
2022/04/09 05:34:33;;;;;;;6.63;4.90;;;6.60;93.40;;;;;;935412;150;27270;-74
2022/04/09 05:37:00;;;;;;;5.47;4.37;;;6.80;92.90;;;;;;931686;150;27315;-73
2022/04/09 05:39:26;;;;;;;6.17;4.77;;;7.00;92.40;;;;;;948412;149;27314;-74
2022/04/09 05:41:53;;;;;;;6.10;4.40;;;7.10;92.00;;;;;;921449;151;27408;-73
2022/04/09 05:44:20;;;;;;;5.10;4.60;;;7.10;91.90;;;;;;928825;151;27254;-74
2022/04/09 05:46:46;;;;;;;4.63;4.20;;;7.30;92.70;;;;;;932854;152;27304;-73
2022/04/09 05:49:13;;;;;;;6.20;4.60;;;7.40;93.00;;;;;;917522;153;27483;-73
2022/04/09 05:51:39;;;;;;;8.30;4.90;;;7.60;92.70;;;;;;938479;150;27326;-73
2022/04/09 05:54:06;;;;;;;4.23;3.83;;;7.80;92.20;;;;;;943677;150;27287;-73
2022/04/09 05:56:33;;;;;;;8.77;4.63;;;7.90;91.60;;;;;;921396;152;27283;-73
2022/04/09 05:58:59;;;;;;;6.13;4.53;;;8.00;91.10;;;;;;927333;154;27344;-73
2022/04/09 06:01:26;;;;;;;5.17;3.97;;;8.10;90.70;;;;;;924749;154;27334;-73
2022/04/09 06:03:53;;;;;;;7.33;4.30;;;8.10;90.80;;;;;;926851;150;27435;-73
2022/04/09 06:06:19;;;;;;;6.33;3.93;;;8.20;90.60;;;;;;926010;153;27328;-73
2022/04/09 06:08:45;;;;;;;3.80;3.10;;;8.20;90.40;;;;;;923549;153;27359;-73
2022/04/09 06:11:12;;;;;;;5.67;3.20;;;8.30;90.80;;;;;;937724;152;27377;-73
2022/04/09 06:13:39;;;;;;;7.47;3.67;;;8.40;90.90;;;;;;930062;152;27429;-73
2022/04/09 06:16:08;;;;;;;4.53;3.00;;;8.50;90.80;;;;;;929029;152;27496;-74
2022/04/09 06:18:32;;;;;;;7.03;3.50;;;8.70;90.70;;;;;;924905;154;27439;-74
2022/04/09 06:20:58;;;;;;;5.60;2.90;;;8.80;91.10;;;;;;920758;154;27375;-73
2022/04/09 06:23:25;;;;;;;6.20;3.60;;;9.00;90.70;;;;;;930799;153;27410;-73
2022/04/09 06:25:52;;;;;;;7.37;3.40;;;9.10;90.70;;;;;;924717;153;27366;-74
2022/04/09 06:28:18;;;;;;;6.90;3.00;;;9.30;90.60;;;;;;927298;153;27350;-73
2022/04/09 06:30:45;;;;;;;6.70;2.80;;;9.40;90.30;;;;;;926739;150;27472;-74
2022/04/09 06:33:11;;;;;;;3.93;2.50;;;9.50;90.00;;;;;;920784;150;27312;-73
2022/04/09 06:35:38;;;;;;;4.87;2.53;;;9.60;88.80;;;;;;919522;152;28116;-74
2022/04/09 06:38:04;;;;;;;5.50;3.27;;;9.70;87.60;;;;;;924259;154;27437;-73
2022/04/09 06:40:31;;;;;;;6.37;2.87;;;9.70;86.50;;;;;;942158;152;27278;-73
2022/04/09 06:42:58;;;;;;;5.03;2.97;;;9.70;85.50;;;;;;930684;152;27424;-73
2022/04/09 06:45:24;;;;;;;7.13;3.07;;;9.60;85.00;;;;;;925524;153;27657;-74
2022/04/09 06:47:51;;;;;;;8.30;3.50;;;9.60;85.00;;;;;;920327;152;27394;-74
2022/04/09 06:50:17;;;;;;;6.17;2.77;;;9.60;85.70;;;;;;928729;152;27277;-74
2022/04/09 06:52:45;;;;;;;5.87;2.47;;;9.60;86.70;;;;;;932883;152;27284;-73
2022/04/09 06:55:11;;;;;;;5.20;2.97;;;9.60;87.90;;;;;;931073;152;27335;-73
2022/04/09 06:57:41;;;;;;;6.07;2.43;;;9.70;88.50;;;;;;925948;154;27352;-74
2022/04/09 07:00:07;;;;;;;4.87;2.40;;;9.90;88.00;;;;;;920676;154;27405;-74
2022/04/09 07:02:33;;;;;;;4.80;2.40;;;10.00;86.70;;;;;;944654;147;27335;-73
2022/04/09 07:05:00;;;;;;;4.47;2.80;;;10.10;85.40;;;;;;955625;146;27257;-74
2022/04/09 07:07:26;;;;;;;6.43;2.40;;;10.10;84.10;;;;;;958750;146;27373;-74
2022/04/09 07:09:53;;;;;;;6.57;2.23;;;10.10;83.50;;;;;;951852;150;27727;-74
2022/04/09 07:12:22;;;;;;;5.20;2.40;;;10.00;82.90;;;;;;952018;146;27286;-74
2022/04/09 07:14:46;;;;;;;3.70;2.53;;;10.00;82.70;;;;;;982780;145;27334;-73
2022/04/09 07:17:13;;;;;;;2.83;1.77;;;9.90;82.40;;;;;;975949;145;27351;-73
2022/04/09 07:19:39;;;;;;;3.43;2.33;;;9.90;82.30;;;;;;967557;148;27322;-74
2022/04/09 07:22:06;;;;;;;2.37;2.17;;;9.80;82.00;;;;;;960372;148;27329;-74
2022/04/09 07:24:33;;;;;;;3.53;2.23;;;9.70;81.70;;;;;;925061;153;27378;-74
2022/04/09 07:26:59;;;;;;;3.47;2.30;;;9.60;81.60;;;;;;963596;145;27270;-74
2022/04/09 07:29:26;;;;;;;5.03;2.00;;;9.60;81.70;;;;;;923574;154;27439;-74
2022/04/09 07:31:52;;;;;;;4.10;2.53;;;9.50;81.70;;;;;;967851;145;27348;-74
2022/04/09 07:34:19;;;;;;;10.03;2.30;;;9.40;81.50;;;;;;964699;146;27443;-74
2022/04/09 07:36:45;;;;;;;5.30;3.00;;;9.30;81.50;;;;;;928713;152;27293;-73
2022/04/09 07:39:12;;;;;;;4.60;2.63;;;9.30;81.50;;;;;;946055;149;27415;-73
2022/04/09 07:41:39;;;;;;;4.40;2.27;;;9.20;81.50;;;;;;964240;145;27330;-73
2022/04/09 07:44:05;;;;;;;7.27;2.70;;;9.20;81.70;;;;;;947213;149;27876;-73
2022/04/09 07:46:32;;;;;;;3.33;2.27;;;9.10;81.70;;;;;;965462;145;27340;-74
2022/04/09 07:48:58;;;;;;;5.17;2.70;;;9.00;81.90;;;;;;946983;149;27409;-74
2022/04/09 07:51:25;;;;;;;6.20;2.90;;;9.00;82.20;;;;;;942311;149;27329;-73
2022/04/09 07:53:52;;;;;;;6.30;3.30;;;8.90;82.70;;;;;;939610;152;27303;-75
2022/04/09 07:56:18;;;;;;;4.20;3.07;;;9.00;83.40;;;;;;938510;150;27306;-74
2022/04/09 07:58:45;;;;;;;4.50;2.90;;;9.00;84.40;;;;;;936365;150;27456;-73
2022/04/09 08:01:11;;;;;;;7.43;3.90;;;9.10;84.80;;;;;;939020;150;27443;-73
2022/04/09 08:03:38;;;;;;;4.07;2.70;;;9.20;84.60;;;;;;937982;150;27419;-74
2022/04/09 08:06:07;;;;;;;4.83;2.70;;;9.20;84.20;;;;;;925640;152;27370;-74
2022/04/09 08:08:33;;;;;;;5.67;2.90;;;9.30;84.00;;;;;;966368;145;28700;-74
2022/04/09 08:11:01;;;;;;;4.77;3.10;;;9.40;83.90;;;;;;965880;145;27399;-74
2022/04/09 08:13:27;;;;;;;7.27;2.70;;;9.40;83.60;;;;;;924464;152;27299;-74
2022/04/09 08:15:53;;;;;;;5.73;2.77;;;9.50;83.10;;;;;;958213;146;27472;-74
2022/04/09 08:18:20;;;;;;;4.10;2.60;;;9.50;83.30;;;;;;956111;147;27388;-74
2022/04/09 08:20:46;;;;;;;5.20;2.87;;;9.50;83.70;;;;;;924523;150;27349;-73
2022/04/09 08:23:13;;;;;;;4.90;3.23;;;9.60;84.20;;;;;;926335;152;27495;-74
2022/04/09 08:25:40;;;;;;;3.47;2.50;;;9.70;85.00;;;;;;915104;153;27359;-74
2022/04/09 08:28:06;;;;;;;5.37;3.10;;;9.90;85.50;;;;;;923792;154;27345;-74
2022/04/09 08:30:33;;;;;;;6.43;3.00;;;10.10;85.30;;;;;;925426;151;27318;-74
2022/04/09 08:33:04;;;;;;;6.73;3.20;;;10.30;84.90;;;;;;924183;154;27511;-74
2022/04/09 08:35:26;;;;;;;6.70;3.17;;;10.60;85.90;;;;;;927817;152;27367;-74
2022/04/09 08:37:53;;;;;;;5.10;3.20;;;10.80;88.00;;;;;;912958;153;27370;-74
2022/04/09 08:40:20;;;;;;;3.37;2.90;;;11.20;87.70;;;;;;922658;153;27335;-74
2022/04/09 08:42:46;;;;;;;4.67;2.47;;;11.50;86.40;;;;;;965752;146;27307;-74
2022/04/09 08:45:13;;;;;;;4.23;2.77;;;11.80;86.00;;;;;;951808;150;27405;-74
2022/04/09 08:47:39;;;;;;;4.73;2.93;;;12.10;84.10;;;;;;913218;157;27314;-74
2022/04/09 08:50:05;;;;;;;4.37;2.73;;;12.40;85.20;;;;;;946216;146;27268;-74
2022/04/09 08:52:32;;;;;;;5.90;3.13;;;12.80;88.10;;;;;;975002;146;27417;-74
2022/04/09 08:54:59;;;;;;;6.08;2.52;;;13.30;86.60;;;;;;951439;148;27399;-74
2022/04/09 08:57:25;;;;;;;4.00;2.30;;;13.90;86.00;;;;;;955717;150;27329;-74
2022/04/09 08:59:54;;;;;;;3.72;2.55;;;14.50;85.20;;;;;;978043;146;27266;-74
2022/04/09 09:02:18;;;;;;;3.52;2.40;;;15.10;85.30;;;;;;950162;149;27682;-74
2022/04/09 09:04:45;;;;;;;4.10;2.30;;;15.80;85.00;;;;;;965270;146;27271;-74
2022/04/09 09:07:21;;;;;;;3.58;2.22;;;16.50;83.80;;;;;;952122;148;27240;-74
2022/04/09 09:09:47;;;;;;;5.33;2.45;;;17.00;79.90;;;;;;967693;146;27305;-74
2022/04/09 09:12:14;;;;;;;4.50;2.50;;;17.50;75.20;;;;;;966097;146;27360;-74
2022/04/09 09:14:40;;;;;;;3.30;2.35;;;17.90;71.10;;;;;;953420;146;27398;-74
2022/04/09 09:17:07;;;;;;;3.15;1.92;;;18.10;72.20;;;;;;955954;148;27280;-74
2022/04/09 09:19:43;;;;;;;5.12;2.17;;;18.30;72.00;;;;;;964923;148;27372;-74
2022/04/09 09:22:09;;;;;;;3.80;2.17;;;18.60;70.90;;;;;;976396;145;27305;-75
2022/04/09 09:24:36;;;;;;;2.92;1.80;;;18.80;69.30;;;;;;973706;145;27316;-73
2022/04/09 09:27:02;;;;;;;6.70;2.25;;;19.10;68.30;;;;;;919897;154;27403;-74
2022/04/09 09:29:29;;;;;;;4.25;3.08;;;19.30;68.40;;;;;;939337;149;27316;-74
2022/04/09 09:31:56;;;;;;;4.53;1.90;;;19.60;69.40;;;;;;948482;149;27372;-74
2022/04/09 09:34:22;;;;;;;2.27;1.62;;;19.90;67.90;;;;;;934455;152;27329;-75
2022/04/09 09:36:49;;;;;;;2.92;1.87;;;20.20;65.80;;;;;;969275;145;27474;-74
2022/04/09 09:39:15;;;;;;;4.03;2.02;;;20.20;63.20;;;;;;920154;152;27254;-74
2022/04/09 09:41:51;;;;;;;5.03;1.80;;;20.20;61.00;;;;;;974545;145;27261;-74
2022/04/09 09:44:23;;;;;;;4.08;1.67;;;20.10;61.30;;;;;;934173;149;27310;-74
2022/04/09 09:46:49;;;;;;;4.45;2.10;;;19.80;61.20;;;;;;953719;148;27388;-74
2022/04/09 09:49:16;;;;;;;3.62;1.65;;;19.80;61.30;;;;;;965209;148;27258;-74
2022/04/09 09:51:43;;;;;;;3.47;1.45;;;19.70;61.70;;;;;;972460;145;27286;-73
2022/04/09 09:54:10;;;;;;;2.75;1.60;;;19.70;61.60;;;;;;961150;148;27265;-74
2022/04/09 09:56:36;;;;;;;4.37;1.30;;;19.60;61.80;;;;;;944221;151;27353;-75
2022/04/09 09:59:02;;;;;;;4.20;1.57;;;19.70;61.90;;;;;;945411;152;27318;-74
2022/04/09 10:01:29;;;;;;;2.60;1.52;;;19.70;62.50;;;;;;933120;150;27427;-75
2022/04/09 10:03:56;;;;;;;4.05;1.62;;;19.80;62.70;;;;;;943989;149;27312;-74
2022/04/09 10:06:22;;;;;;;4.97;1.50;;;20.00;62.70;;;;;;936292;149;27360;-74
2022/04/09 10:08:49;;;;;;;2.55;1.42;;;20.10;62.20;;;;;;951935;148;27347;-73
2022/04/09 10:11:18;;;;;;;3.87;1.92;;;20.30;61.00;;;;;;982388;145;27260;-74
2022/04/09 10:13:47;;;;;;;2.15;1.75;;;20.50;60.30;;;;;;978148;145;27388;-74
2022/04/09 10:16:12;;;;;;;3.33;2.00;;;20.60;59.70;;;;;;972916;145;27296;-74
2022/04/09 10:18:38;;;;;;;5.25;1.90;;;20.60;58.70;;;;;;968895;145;27313;-73
2022/04/09 10:21:05;;;;;;;2.65;1.60;;;20.60;58.40;;;;;;967515;145;27271;-73
2022/04/09 10:23:33;;;;;;;2.58;1.60;;;20.50;57.80;;;;;;968277;147;27401;-74
2022/04/09 10:25:58;;;;;;;3.87;2.33;;;20.20;57.30;;;;;;959037;147;27305;-74
2022/04/09 10:28:31;;;;;;;3.62;1.80;;;19.90;58.10;;;;;;976713;145;27228;-74
2022/04/09 10:30:57;;;;;;;4.40;1.80;;;19.60;57.50;;;;;;965060;145;27302;-74
2022/04/09 10:33:23;;;;;;;2.90;1.37;;;19.30;57.60;;;;;;975630;145;27294;-74
2022/04/09 10:35:50;;;;;;;3.05;1.70;;;19.10;58.00;;;;;;972452;147;27359;-74
2022/04/09 10:38:16;;;;;;;3.42;1.57;;;19.00;58.20;;;;;;975429;145;27244;-73
2022/04/09 10:40:43;;;;;;;3.62;1.62;;;18.80;58.10;;;;;;972601;147;27771;-74
2022/04/09 10:43:10;;;;;;;2.25;1.50;;;18.70;58.00;;;;;;979414;145;27283;-74
2022/04/09 10:46:00;;;;;;;3.65;1.37;;;18.70;57.80;;;;;;976563;145;27244;-74
2022/04/09 10:48:33;;;;;;;2.65;1.17;;;18.70;57.30;;;;;;961844;145;27432;-74
2022/04/09 10:51:06;;;;;;;1.82;1.10;;;18.60;56.80;;;;;;972436;145;27786;-74
2022/04/09 10:53:32;;;;;;;3.42;1.57;;;18.50;56.30;;;;;;967428;145;27313;-73
2022/04/09 10:56:38;;;;;;;1.98;1.17;;;18.30;55.90;;;;;;984228;145;27271;-73
2022/04/09 10:59:13;;;;;;;2.60;1.52;;;18.10;55.50;;;;;;962887;147;27259;-73
2022/04/09 11:01:46;;;;;;;3.83;1.17;;;17.70;55.40;;;;;;971781;145;27392;-73
2022/04/09 11:04:38;;;;;;;4.10;1.60;;;17.40;55.60;;;;;;974983;145;27315;-73
2022/04/09 11:07:10;;;;;;;5.30;1.55;;;17.10;56.00;;;;;;965590;147;27312;-73
2022/04/09 11:09:42;;;;;;;3.52;1.52;;;16.90;56.60;;;;;;970591;145;27276;-74
2022/04/09 11:12:09;;;;;;;8.43;2.37;;;16.70;56.90;;;;;;975586;145;27424;-73
2022/04/09 11:14:42;;;;;;;2.72;1.10;;;16.50;56.90;;;;;;966535;145;27234;-73
2022/04/09 11:17:23;;;;;;;1.87;1.30;;;16.40;57.00;;;;;;976398;145;27338;-73
2022/04/09 11:19:49;;;;;;;3.52;1.35;;;16.30;57.00;;;;;;967822;145;27402;-73
2022/04/09 11:22:16;;;;;;;2.97;1.30;;;16.20;56.90;;;;;;972258;145;27246;-73
2022/04/09 11:24:42;;;;;;;3.60;1.57;;;16.20;56.70;;;;;;981455;145;27394;-73
2022/04/09 11:27:12;;;;;;;3.45;1.50;;;16.10;57.10;;;;;;977573;145;27308;-72
2022/04/09 11:29:36;;;;;;;3.33;1.42;;;16.20;58.00;;;;;;963741;145;27265;-73
2022/04/09 11:32:02;;;;;;;2.58;1.57;;;16.20;57.50;;;;;;964997;145;27361;-72
2022/04/09 11:34:29;;;;;;;3.95;1.65;;;16.30;57.00;;;;;;978159;145;27300;-74
2022/04/09 11:37:11;;;;;;;1.70;1.10;;;16.30;56.60;;;;;;972306;145;27256;-73
2022/04/09 11:39:37;;;;;;;2.37;1.37;;;16.30;56.30;;;;;;981194;144;27770;-72
2022/04/09 11:42:04;;;;;;;3.30;1.10;;;16.20;56.40;;;;;;971333;145;27306;-73
2022/04/09 11:44:30;;;;;;;2.17;1.03;;;16.10;56.00;;;;;;974230;145;27225;-73
2022/04/09 11:46:58;;;;;;;3.43;1.20;;;16.00;55.70;;;;;;973701;144;27271;-73
2022/04/09 11:49:29;;;;;;;1.97;1.20;;;15.80;55.70;;;;;;978479;145;27367;-73
2022/04/09 11:51:56;;;;;;;4.73;2.77;;;15.70;56.00;;;;;;980042;145;27286;-73
2022/04/09 11:54:24;;;;;;;2.70;1.60;;;15.60;56.10;;;;;;990244;145;27244;-73
2022/04/09 11:56:49;;;;;;;2.13;0.93;;;15.60;56.20;;;;;;975314;145;27368;-73
2022/04/09 11:59:16;;;;;;;1.23;0.90;;;15.60;55.40;;;;;;973510;145;27377;-73
2022/04/09 12:01:45;;;;;;;2.12;1.15;;;15.50;55.90;;;;;;977631;145;27260;-73
2022/04/09 12:04:12;;;;;;;1.70;1.00;;;15.50;55.90;;;;;;980204;145;27301;-73
2022/04/09 12:06:38;;;;;;;1.30;0.97;;;15.40;55.60;;;;;;979850;145;27360;-72
2022/04/09 12:09:05;;;;;;;0.70;0.70;;;15.30;55.60;;;;;;966793;145;27240;-73
2022/04/09 12:11:31;;;;;;;2.23;0.90;;;15.10;55.80;;;;;;968513;145;27269;-73
2022/04/09 12:14:10;;;;;;;2.03;1.00;;;15.00;56.20;;;;;;931430;151;27403;-72
2022/04/09 12:16:39;;;;;;;2.83;1.40;;;14.80;56.30;;;;;;944093;150;27900;-74
2022/04/09 12:19:08;;;;;;;2.87;0.97;;;14.70;56.90;;;;;;926042;154;27750;-73
2022/04/09 12:21:34;;;;;;;1.87;1.00;;;14.70;57.40;;;;;;971033;145;27310;-73
2022/04/09 12:24:05;;;;;;;0.97;0.90;;;14.60;57.60;;;;;;967215;148;27411;-73
2022/04/09 12:26:31;;;;;;;2.73;1.33;;;14.60;57.90;;;;;;912468;157;27427;-73
2022/04/09 12:29:17;;;;;;;1.83;0.97;;;14.60;58.20;;;;;;946410;149;27361;-72
2022/04/09 12:31:43;;;;;;;1.13;1.00;;;14.60;58.20;;;;;;944170;149;27375;-73
2022/04/09 12:34:10;;;;;;;1.23;1.00;;;14.70;58.40;;;;;;952125;149;27819;-73
2022/04/09 12:36:38;;;;;;;2.27;1.37;;;14.70;58.10;;;;;;945398;149;27372;-73
2022/04/09 12:39:22;;;;;;;1.67;1.10;;;14.70;57.80;;;;;;936468;152;27324;-73
2022/04/09 12:41:48;;;;;;;2.67;1.13;;;14.70;57.80;;;;;;966054;147;27275;-74
2022/04/09 12:44:26;;;;;;;3.73;1.50;;;14.70;57.70;;;;;;961930;145;27788;-73
2022/04/09 12:46:53;;;;;;;2.10;1.07;;;14.60;57.40;;;;;;951303;149;27418;-73
2022/04/09 12:49:20;;;;;;;2.00;0.87;;;14.50;57.10;;;;;;968934;145;27471;-72
2022/04/09 12:51:46;;;;;;;1.47;1.03;;;14.50;57.10;;;;;;916575;154;27327;-73
2022/04/09 12:54:13;;;;;;;2.00;0.80;;;14.40;57.10;;;;;;975137;145;27321;-73
2022/04/09 12:56:40;;;;;;;1.43;1.07;;;14.40;56.40;;;;;;978136;145;27279;-72